PWSweather.com
Personal Weather Stations
Station Observations
MIXERSVP2
Woodland, CA 95695

Woodland, CA 95695

Lat: 38.659, Lon: -121.775

Elevation: 45

Station Type: Davis Vantage Pro 2

Latest ConditionsUpdated 11:55:40 AM PST Wednesday, Dec 12, 2018
Currently Today's Max Today's Min Today's Average
Temperature 58.0°F14.4°C 58.0°F14.4°C 44.5°F6.9°C 47.8°F8.8°C
Dew Point 45.5°F7.5°C 47.3°F8.5°C 40.6°F4.8°C 42.9°F6.1°C
Winds 3.0 mph NW4.8 kmh NW 13.0 mph -20.9 kmh - - 5.3 mph 8.5 kmh
Wind Gusts 20.0 mph32.2 kmh 24.0 mph38.6 kmh - -
Humidity 63% 87% 63% 83%
Pressure 30.25 in1024.4 mb 30.29 in1025.7 mb 30.16 in1021.3 mb -
Hour Temp Dew Point Humidity Winds Wind Gusts Pressure Precip Precip Rate Daily Precip Total
11:55 AM 58.0°F14.4°C 45.5°F7.5°C 63% 3.0 mph NW4.8 kmh NW 20.0 mph32.2 kmh 30.25 in1024.4 mb 0.00 in0.0 mm 0.00 in0.0 mm 0.00 in0.0 mm
11:50 AM 57.9°F14.4°C 45.4°F7.4°C 63% 13.0 mph NW20.9 kmh NW 19.0 mph30.6 kmh 30.26 in1024.7 mb 0.00 in0.0 mm 0.00 in0.0 mm 0.00 in0.0 mm
11:45 AM 57.5°F14.2°C 45.0°F7.2°C 63% 6.0 mph NW9.7 kmh NW 24.0 mph38.6 kmh 30.25 in1024.4 mb 0.00 in0.0 mm 0.00 in0.0 mm 0.00 in0.0 mm
11:40 AM 57.2°F14.0°C 45.1°F7.3°C 64% 7.0 mph N11.3 kmh N 24.0 mph38.6 kmh 30.26 in1024.7 mb 0.00 in0.0 mm 0.00 in0.0 mm 0.00 in0.0 mm
11:35 AM 57.5°F14.2°C 45.4°F7.4°C 64% 10.0 mph N16.1 kmh N 22.0 mph35.4 kmh 30.26 in1024.7 mb 0.00 in0.0 mm 0.00 in0.0 mm 0.00 in0.0 mm
11:30 AM 57.5°F14.2°C 45.8°F7.7°C 65% 8.0 mph NNW12.9 kmh NNW 17.0 mph27.4 kmh 30.26 in1024.7 mb 0.00 in0.0 mm 0.00 in0.0 mm 0.00 in0.0 mm
11:26 AM 57.3°F14.1°C 46.0°F7.8°C 66% 11.0 mph NW17.7 kmh NW 20.0 mph32.2 kmh 30.26 in1024.7 mb 0.00 in0.0 mm 0.00 in0.0 mm 0.00 in0.0 mm
11:20 AM 56.9°F13.8°C 46.1°F7.8°C 67% 8.0 mph NW12.9 kmh NW 20.0 mph32.2 kmh 30.27 in1025.1 mb 0.00 in0.0 mm 0.00 in0.0 mm 0.00 in0.0 mm
11:15 AM 56.4°F13.6°C 46.0°F7.8°C 68% 7.0 mph NW11.3 kmh NW 22.0 mph35.4 kmh 30.27 in1025.1 mb 0.00 in0.0 mm 0.00 in0.0 mm 0.00 in0.0 mm
11:10 AM 56.0°F13.3°C 46.0°F7.8°C 69% 11.0 mph WSW17.7 kmh WSW 22.0 mph35.4 kmh 30.27 in1025.1 mb 0.00 in0.0 mm 0.00 in0.0 mm 0.00 in0.0 mm
11:06 AM 55.8°F13.2°C 46.2°F7.9°C 70% 4.0 mph NNW6.4 kmh NNW 20.0 mph32.2 kmh 30.27 in1025.1 mb 0.00 in0.0 mm 0.00 in0.0 mm 0.00 in0.0 mm
11:00 AM 55.7°F13.2°C 46.4°F8.0°C 71% 7.0 mph NW11.3 kmh NW 17.0 mph27.4 kmh 30.28 in1025.4 mb 0.00 in0.0 mm 0.00 in0.0 mm 0.00 in0.0 mm
10:55 AM 55.6°F13.1°C 46.7°F8.2°C 72% 8.0 mph NW12.9 kmh NW 17.0 mph27.4 kmh 30.29 in1025.7 mb 0.00 in0.0 mm 0.00 in0.0 mm 0.00 in0.0 mm
10:50 AM 55.8°F13.2°C 46.9°F8.3°C 72% 13.0 mph NW20.9 kmh NW 16.0 mph25.7 kmh 30.29 in1025.7 mb 0.00 in0.0 mm 0.00 in0.0 mm 0.00 in0.0 mm
10:45 AM 55.5°F13.1°C 46.6°F8.1°C 72% 7.0 mph WNW11.3 kmh WNW 14.0 mph22.5 kmh 30.29 in1025.7 mb 0.00 in0.0 mm 0.00 in0.0 mm 0.00 in0.0 mm
10:40 AM 55.4°F13.0°C 47.3°F8.5°C 74% 3.0 mph NNW4.8 kmh NNW 14.0 mph22.5 kmh 30.29 in1025.7 mb 0.00 in0.0 mm 0.00 in0.0 mm 0.00 in0.0 mm
10:35 AM 54.6°F12.6°C 46.8°F8.2°C 75% 8.0 mph WNW12.9 kmh WNW 16.0 mph25.7 kmh 30.29 in1025.7 mb 0.00 in0.0 mm 0.00 in0.0 mm 0.00 in0.0 mm
10:31 AM 54.0°F12.2°C 46.3°F7.9°C 75% 2.0 mph WNW3.2 kmh WNW 16.0 mph25.7 kmh 30.29 in1025.7 mb 0.00 in0.0 mm 0.00 in0.0 mm 0.00 in0.0 mm
10:26 AM 54.2°F12.3°C 46.4°F8.0°C 75% 7.0 mph WNW11.3 kmh WNW 13.0 mph20.9 kmh 30.29 in1025.7 mb 0.00 in0.0 mm 0.00 in0.0 mm 0.00 in0.0 mm
10:20 AM 53.9°F12.2°C 46.5°F8.1°C 76% 8.0 mph NW12.9 kmh NW 12.0 mph19.3 kmh 30.29 in1025.7 mb 0.00 in0.0 mm 0.00 in0.0 mm 0.00 in0.0 mm
10:15 AM 53.5°F11.9°C 46.1°F7.8°C 76% 4.0 mph WNW6.4 kmh WNW 13.0 mph20.9 kmh 30.29 in1025.7 mb 0.00 in0.0 mm 0.00 in0.0 mm 0.00 in0.0 mm
10:10 AM 53.3°F11.8°C 46.3°F7.9°C 77% 3.0 mph NW4.8 kmh NW 13.0 mph20.9 kmh 30.29 in1025.7 mb 0.00 in0.0 mm 0.00 in0.0 mm 0.00 in0.0 mm
10:05 AM 52.7°F11.5°C 46.0°F7.8°C 78% 10.0 mph NW16.1 kmh NW 16.0 mph25.7 kmh 30.29 in1025.7 mb 0.00 in0.0 mm 0.00 in0.0 mm 0.00 in0.0 mm
10:00 AM 52.3°F11.3°C 45.6°F7.6°C 78% 5.0 mph NW8.0 kmh NW 16.0 mph25.7 kmh 30.29 in1025.7 mb 0.00 in0.0 mm 0.00 in0.0 mm 0.00 in0.0 mm
09:55 AM 52.2°F11.2°C 45.9°F7.7°C 79% 2.0 mph WNW3.2 kmh WNW 15.0 mph24.1 kmh 30.29 in1025.7 mb 0.00 in0.0 mm 0.00 in0.0 mm 0.00 in0.0 mm
09:50 AM 52.1°F11.2°C 45.8°F7.7°C 79% 6.0 mph WNW9.7 kmh WNW 16.0 mph25.7 kmh 30.29 in1025.7 mb 0.00 in0.0 mm 0.00 in0.0 mm 0.00 in0.0 mm
09:45 AM 51.6°F10.9°C 45.6°F7.6°C 80% 8.0 mph NW12.9 kmh NW 16.0 mph25.7 kmh 30.29 in1025.7 mb 0.00 in0.0 mm 0.00 in0.0 mm 0.00 in0.0 mm
09:40 AM 51.4°F10.8°C 45.4°F7.4°C 80% 11.0 mph NW17.7 kmh NW 19.0 mph30.6 kmh 30.29 in1025.7 mb 0.00 in0.0 mm 0.00 in0.0 mm 0.00 in0.0 mm
09:35 AM 51.1°F10.6°C 45.1°F7.3°C 80% 6.0 mph NNW9.7 kmh NNW 19.0 mph30.6 kmh 30.29 in1025.7 mb 0.00 in0.0 mm 0.00 in0.0 mm 0.00 in0.0 mm
09:30 AM 51.0°F10.6°C 45.4°F7.4°C 81% 7.0 mph N11.3 kmh N 15.0 mph24.1 kmh 30.29 in1025.7 mb 0.00 in0.0 mm 0.00 in0.0 mm 0.00 in0.0 mm
09:25 AM 50.3°F10.2°C 44.7°F7.1°C 81% 9.0 mph N14.5 kmh N 15.0 mph24.1 kmh 30.29 in1025.7 mb 0.00 in0.0 mm 0.00 in0.0 mm 0.00 in0.0 mm
09:20 AM 50.2°F10.1°C 44.9°F7.2°C 82% 10.0 mph WNW16.1 kmh WNW 15.0 mph24.1 kmh 30.29 in1025.7 mb 0.00 in0.0 mm 0.00 in0.0 mm 0.00 in0.0 mm
09:15 AM 49.7°F9.8°C 44.7°F7.1°C 83% 6.0 mph NW9.7 kmh NW 14.0 mph22.5 kmh 30.29 in1025.7 mb 0.00 in0.0 mm 0.00 in0.0 mm 0.00 in0.0 mm
09:10 AM 49.5°F9.7°C 44.6°F7.0°C 83% 10.0 mph W16.1 kmh W 13.0 mph20.9 kmh 30.29 in1025.7 mb 0.00 in0.0 mm 0.00 in0.0 mm 0.00 in0.0 mm
09:05 AM 49.2°F9.6°C 44.6°F7.0°C 84% 7.0 mph WNW11.3 kmh WNW 13.0 mph20.9 kmh 30.29 in1025.7 mb 0.00 in0.0 mm 0.00 in0.0 mm 0.00 in0.0 mm
09:00 AM 49.0°F9.4°C 44.7°F7.1°C 85% 5.0 mph WNW8.0 kmh WNW 12.0 mph19.3 kmh 30.28 in1025.4 mb 0.00 in0.0 mm 0.00 in0.0 mm 0.00 in0.0 mm
08:55 AM 48.7°F9.3°C 44.7°F7.1°C 86% 4.0 mph NW6.4 kmh NW 11.0 mph17.7 kmh 30.28 in1025.4 mb 0.00 in0.0 mm 0.00 in0.0 mm 0.00 in0.0 mm
08:50 AM 47.8°F8.8°C 43.8°F6.6°C 86% 4.0 mph NW6.4 kmh NW 11.0 mph17.7 kmh 30.28 in1025.4 mb 0.00 in0.0 mm 0.00 in0.0 mm 0.00 in0.0 mm
08:45 AM 47.0°F8.3°C 43.3°F6.3°C 87% 4.0 mph NW6.4 kmh NW 11.0 mph17.7 kmh 30.28 in1025.4 mb 0.00 in0.0 mm 0.00 in0.0 mm 0.00 in0.0 mm
08:41 AM 46.7°F8.2°C 42.7°F5.9°C 86% 7.0 mph WNW11.3 kmh WNW 11.0 mph17.7 kmh 30.28 in1025.4 mb 0.00 in0.0 mm 0.00 in0.0 mm 0.00 in0.0 mm
08:35 AM 46.4°F8.0°C 42.7°F5.9°C 87% 7.0 mph NW11.3 kmh NW 11.0 mph17.7 kmh 30.28 in1025.4 mb 0.00 in0.0 mm 0.00 in0.0 mm 0.00 in0.0 mm
08:31 AM 46.2°F7.9°C 42.5°F5.8°C 87% 4.0 mph NNW6.4 kmh NNW 11.0 mph17.7 kmh 30.29 in1025.7 mb 0.00 in0.0 mm 0.00 in0.0 mm 0.00 in0.0 mm
08:25 AM 45.9°F7.7°C 42.3°F5.7°C 87% 5.0 mph N8.0 kmh N 11.0 mph17.7 kmh 30.29 in1025.7 mb 0.00 in0.0 mm 0.00 in0.0 mm 0.00 in0.0 mm
08:20 AM 45.8°F7.7°C 42.2°F5.7°C 87% 4.0 mph NW6.4 kmh NW 12.0 mph19.3 kmh 30.29 in1025.7 mb 0.00 in0.0 mm 0.00 in0.0 mm 0.00 in0.0 mm
08:15 AM 45.6°F7.6°C 42.0°F5.6°C 87% 4.0 mph NNW6.4 kmh NNW 12.0 mph19.3 kmh 30.29 in1025.7 mb 0.00 in0.0 mm 0.00 in0.0 mm 0.00 in0.0 mm
08:11 AM 45.4°F7.4°C 41.8°F5.4°C 87% 8.0 mph NW12.9 kmh NW 10.0 mph16.1 kmh 30.29 in1025.7 mb 0.00 in0.0 mm 0.00 in0.0 mm 0.00 in0.0 mm
08:05 AM 45.2°F7.3°C 41.6°F5.3°C 87% 4.0 mph NNW6.4 kmh NNW 10.0 mph16.1 kmh 30.28 in1025.4 mb 0.00 in0.0 mm 0.00 in0.0 mm 0.00 in0.0 mm
08:00 AM 45.0°F7.2°C 41.4°F5.2°C 87% 2.0 mph N3.2 kmh N 10.0 mph16.1 kmh 30.28 in1025.4 mb 0.00 in0.0 mm 0.00 in0.0 mm 0.00 in0.0 mm
07:55 AM 45.0°F7.2°C 41.4°F5.2°C 87% 9.0 mph NNE14.5 kmh NNE 10.0 mph16.1 kmh 30.28 in1025.4 mb 0.00 in0.0 mm 0.00 in0.0 mm 0.00 in0.0 mm
07:50 AM 44.9°F7.2°C 41.3°F5.2°C 87% 5.0 mph NW8.0 kmh NW 10.0 mph16.1 kmh 30.28 in1025.4 mb 0.00 in0.0 mm 0.00 in0.0 mm 0.00 in0.0 mm
07:45 AM 44.9°F7.2°C 41.3°F5.2°C 87% 6.0 mph NW9.7 kmh NW 10.0 mph16.1 kmh 30.27 in1025.1 mb 0.00 in0.0 mm 0.00 in0.0 mm 0.00 in0.0 mm
07:40 AM 44.9°F7.2°C 41.3°F5.2°C 87% 5.0 mph NW8.0 kmh NW 10.0 mph16.1 kmh 30.28 in1025.4 mb 0.00 in0.0 mm 0.00 in0.0 mm 0.00 in0.0 mm
07:35 AM 44.9°F7.2°C 41.3°F5.2°C 87% 4.0 mph NW6.4 kmh NW 10.0 mph16.1 kmh 30.28 in1025.4 mb 0.00 in0.0 mm 0.00 in0.0 mm 0.00 in0.0 mm
07:30 AM 45.0°F7.2°C 41.4°F5.2°C 87% 5.0 mph NW8.0 kmh NW 12.0 mph19.3 kmh 30.28 in1025.4 mb 0.00 in0.0 mm 0.00 in0.0 mm 0.00 in0.0 mm
07:25 AM 45.0°F7.2°C 41.4°F5.2°C 87% 3.0 mph NW4.8 kmh NW 12.0 mph19.3 kmh 30.28 in1025.4 mb 0.00 in0.0 mm 0.00 in0.0 mm 0.00 in0.0 mm
07:20 AM 45.0°F7.2°C 41.4°F5.2°C 87% 7.0 mph NNW11.3 kmh NNW 11.0 mph17.7 kmh 30.28 in1025.4 mb 0.00 in0.0 mm 0.00 in0.0 mm 0.00 in0.0 mm
07:15 AM 45.0°F7.2°C 41.4°F5.2°C 87% 3.0 mph NNW4.8 kmh NNW 10.0 mph16.1 kmh 30.28 in1025.4 mb 0.00 in0.0 mm 0.00 in0.0 mm 0.00 in0.0 mm
07:10 AM 45.2°F7.3°C 41.3°F5.2°C 86% 3.0 mph NNW4.8 kmh NNW 13.0 mph20.9 kmh 30.29 in1025.7 mb 0.00 in0.0 mm 0.00 in0.0 mm 0.00 in0.0 mm
07:05 AM 45.3°F7.4°C 41.4°F5.2°C 86% 3.0 mph NNW4.8 kmh NNW 13.0 mph20.9 kmh 30.29 in1025.7 mb 0.00 in0.0 mm 0.00 in0.0 mm 0.00 in0.0 mm
07:01 AM 45.4°F7.4°C 41.8°F5.4°C 87% 7.0 mph NW11.3 kmh NW 12.0 mph19.3 kmh 30.29 in1025.7 mb 0.00 in0.0 mm 0.00 in0.0 mm 0.00 in0.0 mm
06:55 AM 45.6°F7.6°C 42.0°F5.6°C 87% 5.0 mph NW8.0 kmh NW 12.0 mph19.3 kmh 30.29 in1025.7 mb 0.00 in0.0 mm 0.00 in0.0 mm 0.00 in0.0 mm
06:50 AM 45.7°F7.6°C 42.1°F5.6°C 87% 8.0 mph NNW12.9 kmh NNW 10.0 mph16.1 kmh 30.29 in1025.7 mb 0.00 in0.0 mm 0.00 in0.0 mm 0.00 in0.0 mm
06:45 AM 45.9°F7.7°C 42.0°F5.6°C 86% 4.0 mph NNW6.4 kmh NNW 9.0 mph14.5 kmh 30.29 in1025.7 mb 0.00 in0.0 mm 0.00 in0.0 mm 0.00 in0.0 mm
06:40 AM 45.9°F7.7°C 42.0°F5.6°C 86% Calm Calm 8.0 mph12.9 kmh 30.29 in1025.7 mb 0.00 in0.0 mm 0.00 in0.0 mm 0.00 in0.0 mm
06:35 AM 45.9°F7.7°C 42.0°F5.6°C 86% 5.0 mph N8.0 kmh N 9.0 mph14.5 kmh 30.29 in1025.7 mb 0.00 in0.0 mm 0.00 in0.0 mm 0.00 in0.0 mm
06:30 AM 45.8°F7.7°C 41.9°F5.5°C 86% 2.0 mph NW3.2 kmh NW 9.0 mph14.5 kmh 30.28 in1025.4 mb 0.00 in0.0 mm 0.00 in0.0 mm 0.00 in0.0 mm
06:25 AM 45.8°F7.7°C 41.9°F5.5°C 86% 3.0 mph NNE4.8 kmh NNE 9.0 mph14.5 kmh 30.29 in1025.7 mb 0.00 in0.0 mm 0.00 in0.0 mm 0.00 in0.0 mm
06:20 AM 45.9°F7.7°C 42.0°F5.6°C 86% 6.0 mph NW9.7 kmh NW 9.0 mph14.5 kmh 30.29 in1025.7 mb 0.00 in0.0 mm 0.00 in0.0 mm 0.00 in0.0 mm
06:15 AM 46.0°F7.8°C 42.1°F5.6°C 86% 4.0 mph NW6.4 kmh NW 8.0 mph12.9 kmh 30.29 in1025.7 mb 0.00 in0.0 mm 0.00 in0.0 mm 0.00 in0.0 mm
06:10 AM 45.9°F7.7°C 42.0°F5.6°C 86% 4.0 mph NNW6.4 kmh NNW 8.0 mph12.9 kmh 30.28 in1025.4 mb 0.00 in0.0 mm 0.00 in0.0 mm 0.00 in0.0 mm
06:05 AM 45.8°F7.7°C 42.2°F5.7°C 87% 4.0 mph NW6.4 kmh NW 7.0 mph11.3 kmh 30.28 in1025.4 mb 0.00 in0.0 mm 0.00 in0.0 mm 0.00 in0.0 mm
06:00 AM 45.6°F7.6°C 42.0°F5.6°C 87% 2.0 mph NNE3.2 kmh NNE 8.0 mph12.9 kmh 30.28 in1025.4 mb 0.00 in0.0 mm 0.00 in0.0 mm 0.00 in0.0 mm
05:55 AM 45.6°F7.6°C 42.0°F5.6°C 87% 5.0 mph NNE8.0 kmh NNE 8.0 mph12.9 kmh 30.28 in1025.4 mb 0.00 in0.0 mm 0.00 in0.0 mm 0.00 in0.0 mm
05:50 AM 45.5°F7.5°C 41.9°F5.5°C 87% 2.0 mph N3.2 kmh N 8.0 mph12.9 kmh 30.28 in1025.4 mb 0.00 in0.0 mm 0.00 in0.0 mm 0.00 in0.0 mm
05:45 AM 45.4°F7.4°C 41.5°F5.3°C 86% 3.0 mph WNW4.8 kmh WNW 8.0 mph12.9 kmh 30.27 in1025.1 mb 0.00 in0.0 mm 0.00 in0.0 mm 0.00 in0.0 mm
05:40 AM 45.3°F7.4°C 41.4°F5.2°C 86% 3.0 mph NW4.8 kmh NW 9.0 mph14.5 kmh 30.27 in1025.1 mb 0.00 in0.0 mm 0.00 in0.0 mm 0.00 in0.0 mm
05:35 AM 45.2°F7.3°C 41.3°F5.2°C 86% 3.0 mph NW4.8 kmh NW 9.0 mph14.5 kmh 30.27 in1025.1 mb 0.00 in0.0 mm 0.00 in0.0 mm 0.00 in0.0 mm
05:30 AM 45.2°F7.3°C 41.3°F5.2°C 86% 7.0 mph NW11.3 kmh NW 10.0 mph16.1 kmh 30.27 in1025.1 mb 0.00 in0.0 mm 0.00 in0.0 mm 0.00 in0.0 mm
05:25 AM 45.2°F7.3°C 41.3°F5.2°C 86% 3.0 mph NNW4.8 kmh NNW 10.0 mph16.1 kmh 30.27 in1025.1 mb 0.00 in0.0 mm 0.00 in0.0 mm 0.00 in0.0 mm
05:20 AM 45.2°F7.3°C 41.3°F5.2°C 86% 3.0 mph NNW4.8 kmh NNW 10.0 mph16.1 kmh 30.26 in1024.7 mb 0.00 in0.0 mm 0.00 in0.0 mm 0.00 in0.0 mm
05:15 AM 45.2°F7.3°C 41.3°F5.2°C 86% 6.0 mph WNW9.7 kmh WNW 9.0 mph14.5 kmh 30.27 in1025.1 mb 0.00 in0.0 mm 0.00 in0.0 mm 0.00 in0.0 mm
05:10 AM 45.2°F7.3°C 41.3°F5.2°C 86% 6.0 mph NW9.7 kmh NW 10.0 mph16.1 kmh 30.27 in1025.1 mb 0.00 in0.0 mm 0.00 in0.0 mm 0.00 in0.0 mm
05:05 AM 45.2°F7.3°C 41.3°F5.2°C 86% 3.0 mph NNW4.8 kmh NNW 10.0 mph16.1 kmh 30.27 in1025.1 mb 0.00 in0.0 mm 0.00 in0.0 mm 0.00 in0.0 mm
05:00 AM 45.2°F7.3°C 41.3°F5.2°C 86% 4.0 mph WNW6.4 kmh WNW 10.0 mph16.1 kmh 30.27 in1025.1 mb 0.00 in0.0 mm 0.00 in0.0 mm 0.00 in0.0 mm
04:55 AM 45.2°F7.3°C 41.3°F5.2°C 86% 5.0 mph NW8.0 kmh NW 12.0 mph19.3 kmh 30.27 in1025.1 mb 0.00 in0.0 mm 0.00 in0.0 mm 0.00 in0.0 mm
04:50 AM 45.1°F7.3°C 41.2°F5.1°C 86% 8.0 mph NNW12.9 kmh NNW 12.0 mph19.3 kmh 30.27 in1025.1 mb 0.00 in0.0 mm 0.00 in0.0 mm 0.00 in0.0 mm
04:45 AM 45.1°F7.3°C 41.2°F5.1°C 86% 4.0 mph W6.4 kmh W 9.0 mph14.5 kmh 30.26 in1024.7 mb 0.00 in0.0 mm 0.00 in0.0 mm 0.00 in0.0 mm
04:40 AM 45.2°F7.3°C 41.3°F5.2°C 86% 5.0 mph NNE8.0 kmh NNE 11.0 mph17.7 kmh 30.25 in1024.4 mb 0.00 in0.0 mm 0.00 in0.0 mm 0.00 in0.0 mm
04:35 AM 45.3°F7.4°C 41.4°F5.2°C 86% 7.0 mph NW11.3 kmh NW 11.0 mph17.7 kmh 30.25 in1024.4 mb 0.00 in0.0 mm 0.00 in0.0 mm 0.00 in0.0 mm
04:30 AM 45.4°F7.4°C 41.5°F5.3°C 86% 4.0 mph NW6.4 kmh NW 10.0 mph16.1 kmh 30.24 in1024.0 mb 0.00 in0.0 mm 0.00 in0.0 mm 0.00 in0.0 mm
04:25 AM 45.5°F7.5°C 41.6°F5.3°C 86% 3.0 mph NNW4.8 kmh NNW 11.0 mph17.7 kmh 30.24 in1024.0 mb 0.00 in0.0 mm 0.00 in0.0 mm 0.00 in0.0 mm
04:20 AM 45.4°F7.4°C 41.5°F5.3°C 86% 3.0 mph NW4.8 kmh NW 11.0 mph17.7 kmh 30.24 in1024.0 mb 0.00 in0.0 mm 0.00 in0.0 mm 0.00 in0.0 mm
04:15 AM 45.0°F7.2°C 41.1°F5.1°C 86% 7.0 mph NNW11.3 kmh NNW 6.0 mph9.7 kmh 30.23 in1023.7 mb 0.00 in0.0 mm 0.00 in0.0 mm 0.00 in0.0 mm
04:10 AM 44.9°F7.2°C 41.0°F5.0°C 86% 3.0 mph NW4.8 kmh NW 6.0 mph9.7 kmh 30.23 in1023.7 mb 0.00 in0.0 mm 0.00 in0.0 mm 0.00 in0.0 mm
04:05 AM 44.6°F7.0°C 40.7°F4.8°C 86% 4.0 mph W6.4 kmh W 6.0 mph9.7 kmh 30.23 in1023.7 mb 0.00 in0.0 mm 0.00 in0.0 mm 0.00 in0.0 mm
04:00 AM 44.5°F6.9°C 40.6°F4.8°C 86% 4.0 mph NW6.4 kmh NW 4.0 mph6.4 kmh 30.23 in1023.7 mb 0.00 in0.0 mm 0.00 in0.0 mm 0.00 in0.0 mm
03:55 AM 44.9°F7.2°C 41.0°F5.0°C 86% Calm Calm 5.0 mph8.0 kmh 30.22 in1023.4 mb 0.00 in0.0 mm 0.00 in0.0 mm 0.00 in0.0 mm
03:50 AM 45.0°F7.2°C 41.1°F5.1°C 86% Calm Calm 7.0 mph11.3 kmh 30.21 in1023.0 mb 0.00 in0.0 mm 0.00 in0.0 mm 0.00 in0.0 mm
03:45 AM 45.2°F7.3°C 41.3°F5.2°C 86% 2.0 mph SE3.2 kmh SE 7.0 mph11.3 kmh 30.20 in1022.7 mb 0.00 in0.0 mm 0.00 in0.0 mm 0.00 in0.0 mm
03:40 AM 45.2°F7.3°C 41.3°F5.2°C 86% 2.0 mph SE3.2 kmh SE 6.0 mph9.7 kmh 30.20 in1022.7 mb 0.00 in0.0 mm 0.00 in0.0 mm 0.00 in0.0 mm
03:35 AM 45.4°F7.4°C 41.5°F5.3°C 86% 1.0 mph SSE1.6 kmh SSE 6.0 mph9.7 kmh 30.20 in1022.7 mb 0.00 in0.0 mm 0.00 in0.0 mm 0.00 in0.0 mm
03:30 AM 45.4°F7.4°C 41.5°F5.3°C 86% 4.0 mph SE6.4 kmh SE 6.0 mph9.7 kmh 30.20 in1022.7 mb 0.00 in0.0 mm 0.00 in0.0 mm 0.00 in0.0 mm
03:25 AM 45.4°F7.4°C 41.5°F5.3°C 86% 4.0 mph SE6.4 kmh SE 6.0 mph9.7 kmh 30.19 in1022.4 mb 0.00 in0.0 mm 0.00 in0.0 mm 0.00 in0.0 mm
03:20 AM 45.5°F7.5°C 41.6°F5.3°C 86% 2.0 mph ESE3.2 kmh ESE 6.0 mph9.7 kmh 30.20 in1022.7 mb 0.00 in0.0 mm 0.00 in0.0 mm 0.00 in0.0 mm
03:15 AM 45.6°F7.6°C 41.7°F5.4°C 86% 4.0 mph ESE6.4 kmh ESE 6.0 mph9.7 kmh 30.20 in1022.7 mb 0.00 in0.0 mm 0.00 in0.0 mm 0.00 in0.0 mm
03:10 AM 45.8°F7.7°C 41.9°F5.5°C 86% 1.0 mph SE1.6 kmh SE 9.0 mph14.5 kmh 30.20 in1022.7 mb 0.00 in0.0 mm 0.00 in0.0 mm 0.00 in0.0 mm
03:05 AM 45.9°F7.7°C 42.0°F5.6°C 86% 2.0 mph ESE3.2 kmh ESE 9.0 mph14.5 kmh 30.19 in1022.4 mb 0.00 in0.0 mm 0.00 in0.0 mm 0.00 in0.0 mm
03:00 AM 45.9°F7.7°C 42.0°F5.6°C 86% 6.0 mph E9.7 kmh E 9.0 mph14.5 kmh 30.19 in1022.4 mb 0.00 in0.0 mm 0.00 in0.0 mm 0.00 in0.0 mm
02:55 AM 45.9°F7.7°C 42.0°F5.6°C 86% 6.0 mph SE9.7 kmh SE 11.0 mph17.7 kmh 30.19 in1022.4 mb 0.00 in0.0 mm 0.00 in0.0 mm 0.00 in0.0 mm
02:50 AM 45.8°F7.7°C 41.9°F5.5°C 86% 5.0 mph ESE8.0 kmh ESE 11.0 mph17.7 kmh 30.19 in1022.4 mb 0.00 in0.0 mm 0.00 in0.0 mm 0.00 in0.0 mm
02:45 AM 45.7°F7.6°C 41.8°F5.4°C 86% 8.0 mph ESE12.9 kmh ESE 11.0 mph17.7 kmh 30.19 in1022.4 mb 0.00 in0.0 mm 0.00 in0.0 mm 0.00 in0.0 mm
02:40 AM 45.8°F7.7°C 41.9°F5.5°C 86% 4.0 mph SE6.4 kmh SE 11.0 mph17.7 kmh 30.18 in1022.0 mb 0.00 in0.0 mm 0.00 in0.0 mm 0.00 in0.0 mm
02:35 AM 45.8°F7.7°C 41.9°F5.5°C 86% 8.0 mph ESE12.9 kmh ESE 12.0 mph19.3 kmh 30.19 in1022.4 mb 0.00 in0.0 mm 0.00 in0.0 mm 0.00 in0.0 mm
02:30 AM 45.8°F7.7°C 41.9°F5.5°C 86% 7.0 mph ESE11.3 kmh ESE 12.0 mph19.3 kmh 30.20 in1022.7 mb 0.00 in0.0 mm 0.00 in0.0 mm 0.00 in0.0 mm
02:25 AM 45.9°F7.7°C 42.0°F5.6°C 86% 9.0 mph SE14.5 kmh SE 12.0 mph19.3 kmh 30.19 in1022.4 mb 0.00 in0.0 mm 0.00 in0.0 mm 0.00 in0.0 mm
02:20 AM 46.0°F7.8°C 42.1°F5.6°C 86% 6.0 mph SE9.7 kmh SE 12.0 mph19.3 kmh 30.20 in1022.7 mb 0.00 in0.0 mm 0.00 in0.0 mm 0.00 in0.0 mm
02:15 AM 46.0°F7.8°C 42.1°F5.6°C 86% 5.0 mph ESE8.0 kmh ESE 11.0 mph17.7 kmh 30.19 in1022.4 mb 0.00 in0.0 mm 0.00 in0.0 mm 0.00 in0.0 mm
02:10 AM 46.1°F7.8°C 42.1°F5.6°C 86% 2.0 mph SE3.2 kmh SE 11.0 mph17.7 kmh 30.19 in1022.4 mb 0.00 in0.0 mm 0.00 in0.0 mm 0.00 in0.0 mm
02:05 AM 46.1°F7.8°C 42.1°F5.6°C 86% 8.0 mph SE12.9 kmh SE 11.0 mph17.7 kmh 30.20 in1022.7 mb 0.00 in0.0 mm 0.00 in0.0 mm 0.00 in0.0 mm
02:00 AM 46.1°F7.8°C 42.1°F5.6°C 86% 11.0 mph SE17.7 kmh SE 11.0 mph17.7 kmh 30.19 in1022.4 mb 0.00 in0.0 mm 0.00 in0.0 mm 0.00 in0.0 mm
01:55 AM 46.1°F7.8°C 42.1°F5.6°C 86% 6.0 mph ESE9.7 kmh ESE 11.0 mph17.7 kmh 30.19 in1022.4 mb 0.00 in0.0 mm 0.00 in0.0 mm 0.00 in0.0 mm
01:50 AM 46.0°F7.8°C 42.1°F5.6°C 86% 4.0 mph ESE6.4 kmh ESE 9.0 mph14.5 kmh 30.19 in1022.4 mb 0.00 in0.0 mm 0.00 in0.0 mm 0.00 in0.0 mm
01:45 AM 46.0°F7.8°C 42.1°F5.6°C 86% 7.0 mph SE11.3 kmh SE 9.0 mph14.5 kmh 30.18 in1022.0 mb 0.00 in0.0 mm 0.00 in0.0 mm 0.00 in0.0 mm
01:40 AM 46.0°F7.8°C 42.1°F5.6°C 86% 4.0 mph E6.4 kmh E 9.0 mph14.5 kmh 30.18 in1022.0 mb 0.00 in0.0 mm 0.00 in0.0 mm 0.00 in0.0 mm
01:35 AM 46.0°F7.8°C 42.1°F5.6°C 86% 4.0 mph E6.4 kmh E 11.0 mph17.7 kmh 30.17 in1021.7 mb 0.00 in0.0 mm 0.00 in0.0 mm 0.00 in0.0 mm
01:30 AM 45.9°F7.7°C 42.0°F5.6°C 86% 7.0 mph E11.3 kmh E 11.0 mph17.7 kmh 30.17 in1021.7 mb 0.00 in0.0 mm 0.00 in0.0 mm 0.00 in0.0 mm
01:25 AM 46.0°F7.8°C 42.1°F5.6°C 86% 6.0 mph SE9.7 kmh SE 8.0 mph12.9 kmh 30.18 in1022.0 mb 0.00 in0.0 mm 0.00 in0.0 mm 0.00 in0.0 mm
01:20 AM 45.9°F7.7°C 42.0°F5.6°C 86% 5.0 mph SE8.0 kmh SE 11.0 mph17.7 kmh 30.18 in1022.0 mb 0.00 in0.0 mm 0.00 in0.0 mm 0.00 in0.0 mm
01:15 AM 45.9°F7.7°C 42.0°F5.6°C 86% 5.0 mph E8.0 kmh E 11.0 mph17.7 kmh 30.17 in1021.7 mb 0.00 in0.0 mm 0.00 in0.0 mm 0.00 in0.0 mm
01:10 AM 46.0°F7.8°C 42.1°F5.6°C 86% 7.0 mph SE11.3 kmh SE 8.0 mph12.9 kmh 30.17 in1021.7 mb 0.00 in0.0 mm 0.00 in0.0 mm 0.00 in0.0 mm
01:05 AM 46.0°F7.8°C 42.1°F5.6°C 86% 2.0 mph ESE3.2 kmh ESE 8.0 mph12.9 kmh 30.17 in1021.7 mb 0.00 in0.0 mm 0.00 in0.0 mm 0.00 in0.0 mm
01:00 AM 46.1°F7.8°C 41.8°F5.4°C 85% 3.0 mph E4.8 kmh E 8.0 mph12.9 kmh 30.16 in1021.3 mb 0.00 in0.0 mm 0.00 in0.0 mm 0.00 in0.0 mm
12:55 AM 46.4°F8.0°C 42.1°F5.6°C 85% 5.0 mph E8.0 kmh E 8.0 mph12.9 kmh 30.17 in1021.7 mb 0.00 in0.0 mm 0.00 in0.0 mm 0.00 in0.0 mm
12:50 AM 46.7°F8.2°C 42.4°F5.8°C 85% 1.0 mph ESE1.6 kmh ESE 11.0 mph17.7 kmh 30.18 in1022.0 mb 0.00 in0.0 mm 0.00 in0.0 mm 0.00 in0.0 mm
12:45 AM 46.9°F8.3°C 42.6°F5.9°C 85% 1.0 mph SE1.6 kmh SE 11.0 mph17.7 kmh 30.19 in1022.4 mb 0.00 in0.0 mm 0.00 in0.0 mm 0.00 in0.0 mm
12:40 AM 47.0°F8.3°C 42.7°F5.9°C 85% 4.0 mph SSE6.4 kmh SSE 9.0 mph14.5 kmh 30.18 in1022.0 mb 0.00 in0.0 mm 0.00 in0.0 mm 0.00 in0.0 mm
12:35 AM 47.1°F8.4°C 42.8°F6.0°C 85% 6.0 mph ESE9.7 kmh ESE 13.0 mph20.9 kmh 30.18 in1022.0 mb 0.00 in0.0 mm 0.00 in0.0 mm 0.00 in0.0 mm
12:30 AM 47.2°F8.4°C 42.9°F6.1°C 85% 5.0 mph SSE8.0 kmh SSE 13.0 mph20.9 kmh 30.18 in1022.0 mb 0.00 in0.0 mm 0.00 in0.0 mm 0.00 in0.0 mm
12:25 AM 47.2°F8.4°C 42.9°F6.1°C 85% 10.0 mph SE16.1 kmh SE 11.0 mph17.7 kmh 30.17 in1021.7 mb 0.00 in0.0 mm 0.00 in0.0 mm 0.00 in0.0 mm
12:20 AM 47.2°F8.4°C 42.9°F6.1°C 85% 5.0 mph SE8.0 kmh SE 15.0 mph24.1 kmh 30.18 in1022.0 mb 0.00 in0.0 mm 0.00 in0.0 mm 0.00 in0.0 mm
12:15 AM 47.3°F8.5°C 43.0°F6.1°C 85% 7.0 mph E11.3 kmh E 15.0 mph24.1 kmh 30.18 in1022.0 mb 0.00 in0.0 mm 0.00 in0.0 mm 0.00 in0.0 mm
12:10 AM 47.2°F8.4°C 42.9°F6.1°C 85% 11.0 mph ESE17.7 kmh ESE 14.0 mph22.5 kmh 30.17 in1021.7 mb 0.00 in0.0 mm 0.00 in0.0 mm 0.00 in0.0 mm
12:05 AM 47.0°F8.3°C 42.7°F5.9°C 85% 6.0 mph ESE9.7 kmh ESE 8.0 mph12.9 kmh 30.17 in1021.7 mb 0.00 in0.0 mm 0.00 in0.0 mm 0.00 in0.0 mm
12:01 AM 47.1°F8.4°C 42.8°F6.0°C 85% 5.0 mph E8.0 kmh E 8.0 mph12.9 kmh 30.17 in1021.7 mb 0.00 in0.0 mm 0.00 in0.0 mm 0.00 in0.0 mm